sensor_id;sensor_type;location;lat;lon;timestamp;P1;durP1;ratioP1;P2;durP2;ratioP2
38513;SDS011;24282;48.400;10.808;2022-11-21T00:00:16;1.20;;;1.00;;
38513;SDS011;24282;48.400;10.808;2022-11-21T00:02:42;1.40;;;1.00;;
38513;SDS011;24282;48.400;10.808;2022-11-21T00:05:07;1.43;;;1.07;;
38513;SDS011;24282;48.400;10.808;2022-11-21T00:07:33;0.80;;;0.70;;
38513;SDS011;24282;48.400;10.808;2022-11-21T00:09:59;1.43;;;1.10;;
38513;SDS011;24282;48.400;10.808;2022-11-21T00:12:25;1.50;;;1.10;;
38513;SDS011;24282;48.400;10.808;2022-11-21T00:14:51;1.23;;;0.80;;
38513;SDS011;24282;48.400;10.808;2022-11-21T00:17:16;1.47;;;0.70;;
38513;SDS011;24282;48.400;10.808;2022-11-21T00:19:42;1.70;;;0.90;;
38513;SDS011;24282;48.400;10.808;2022-11-21T00:22:08;1.00;;;0.87;;
38513;SDS011;24282;48.400;10.808;2022-11-21T00:24:34;1.03;;;0.80;;
38513;SDS011;24282;48.400;10.808;2022-11-21T00:26:59;1.63;;;0.97;;
38513;SDS011;24282;48.400;10.808;2022-11-21T00:29:25;1.87;;;0.97;;
38513;SDS011;24282;48.400;10.808;2022-11-21T00:31:51;1.30;;;0.93;;
38513;SDS011;24282;48.400;10.808;2022-11-21T00:34:19;1.00;;;0.80;;
38513;SDS011;24282;48.400;10.808;2022-11-21T00:36:45;0.73;;;0.70;;
38513;SDS011;24282;48.400;10.808;2022-11-21T00:39:11;1.40;;;0.97;;
38513;SDS011;24282;48.400;10.808;2022-11-21T00:41:36;1.30;;;0.83;;
38513;SDS011;24282;48.400;10.808;2022-11-21T00:44:02;0.97;;;0.80;;
38513;SDS011;24282;48.400;10.808;2022-11-21T00:46:28;0.60;;;0.50;;
38513;SDS011;24282;48.400;10.808;2022-11-21T00:48:53;1.77;;;0.90;;
38513;SDS011;24282;48.400;10.808;2022-11-21T00:51:19;2.57;;;1.00;;
38513;SDS011;24282;48.400;10.808;2022-11-21T00:53:45;3.40;;;1.27;;
38513;SDS011;24282;48.400;10.808;2022-11-21T00:56:11;1.53;;;0.80;;
38513;SDS011;24282;48.400;10.808;2022-11-21T00:58:37;2.00;;;1.00;;
38513;SDS011;24282;48.400;10.808;2022-11-21T01:03:28;1.43;;;0.90;;
38513;SDS011;24282;48.400;10.808;2022-11-21T01:06:03;0.70;;;0.60;;
38513;SDS011;24282;48.400;10.808;2022-11-21T01:08:34;1.17;;;1.00;;
38513;SDS011;24282;48.400;10.808;2022-11-21T01:11:01;1.43;;;0.83;;
38513;SDS011;24282;48.400;10.808;2022-11-21T01:13:28;1.13;;;0.70;;
38513;SDS011;24282;48.400;10.808;2022-11-21T01:15:54;1.13;;;0.70;;
38513;SDS011;24282;48.400;10.808;2022-11-21T01:18:22;1.47;;;0.80;;
38513;SDS011;24282;48.400;10.808;2022-11-21T01:20:48;1.00;;;0.80;;
38513;SDS011;24282;48.400;10.808;2022-11-21T01:23:14;1.40;;;0.80;;
38513;SDS011;24282;48.400;10.808;2022-11-21T01:25:39;3.40;;;0.97;;
38513;SDS011;24282;48.400;10.808;2022-11-21T01:28:05;3.80;;;0.73;;
38513;SDS011;24282;48.400;10.808;2022-11-21T01:30:31;1.50;;;0.80;;
38513;SDS011;24282;48.400;10.808;2022-11-21T01:32:56;1.30;;;0.90;;
38513;SDS011;24282;48.400;10.808;2022-11-21T01:35:22;1.30;;;0.80;;
38513;SDS011;24282;48.400;10.808;2022-11-21T01:37:49;0.70;;;0.67;;
38513;SDS011;24282;48.400;10.808;2022-11-21T01:40:15;1.80;;;0.93;;
38513;SDS011;24282;48.400;10.808;2022-11-21T01:42:51;1.83;;;0.90;;
38513;SDS011;24282;48.400;10.808;2022-11-21T01:48:30;2.13;;;1.00;;
38513;SDS011;24282;48.400;10.808;2022-11-21T01:51:01;1.90;;;0.60;;
38513;SDS011;24282;48.400;10.808;2022-11-21T01:53:31;1.03;;;0.80;;
38513;SDS011;24282;48.400;10.808;2022-11-21T01:55:58;1.23;;;0.87;;
38513;SDS011;24282;48.400;10.808;2022-11-21T01:58:24;1.23;;;0.70;;
38513;SDS011;24282;48.400;10.808;2022-11-21T02:00:50;1.50;;;0.77;;
38513;SDS011;24282;48.400;10.808;2022-11-21T02:03:17;1.17;;;0.80;;
38513;SDS011;24282;48.400;10.808;2022-11-21T02:05:46;0.97;;;0.70;;
38513;SDS011;24282;48.400;10.808;2022-11-21T02:08:13;1.07;;;0.60;;
38513;SDS011;24282;48.400;10.808;2022-11-21T02:10:49;1.23;;;0.80;;
38513;SDS011;24282;48.400;10.808;2022-11-21T02:13:26;1.80;;;0.73;;
38513;SDS011;24282;48.400;10.808;2022-11-21T02:15:52;0.97;;;0.67;;
38513;SDS011;24282;48.400;10.808;2022-11-21T02:18:18;1.83;;;0.90;;
38513;SDS011;24282;48.400;10.808;2022-11-21T02:20:48;2.13;;;0.90;;
38513;SDS011;24282;48.400;10.808;2022-11-21T02:23:54;1.13;;;0.70;;
38513;SDS011;24282;48.400;10.808;2022-11-21T02:26:21;1.60;;;0.90;;
38513;SDS011;24282;48.400;10.808;2022-11-21T02:28:47;2.03;;;0.60;;
38513;SDS011;24282;48.400;10.808;2022-11-21T02:31:12;1.83;;;0.80;;
38513;SDS011;24282;48.400;10.808;2022-11-21T02:33:38;1.20;;;0.80;;
38513;SDS011;24282;48.400;10.808;2022-11-21T02:36:26;1.23;;;0.73;;
38513;SDS011;24282;48.400;10.808;2022-11-21T02:38:55;1.00;;;0.80;;
38513;SDS011;24282;48.400;10.808;2022-11-21T02:41:21;1.53;;;0.97;;
38513;SDS011;24282;48.400;10.808;2022-11-21T02:43:54;2.80;;;1.07;;
38513;SDS011;24282;48.400;10.808;2022-11-21T02:46:26;0.90;;;0.73;;
38513;SDS011;24282;48.400;10.808;2022-11-21T02:48:52;1.80;;;0.77;;
38513;SDS011;24282;48.400;10.808;2022-11-21T02:51:19;1.67;;;1.00;;
38513;SDS011;24282;48.400;10.808;2022-11-21T02:53:44;2.30;;;1.00;;
38513;SDS011;24282;48.400;10.808;2022-11-21T02:56:10;2.60;;;1.00;;
38513;SDS011;24282;48.400;10.808;2022-11-21T02:58:36;1.97;;;1.00;;
38513;SDS011;24282;48.400;10.808;2022-11-21T03:01:01;2.97;;;0.70;;
38513;SDS011;24282;48.400;10.808;2022-11-21T03:03:27;4.37;;;1.20;;
38513;SDS011;24282;48.400;10.808;2022-11-21T03:05:55;5.27;;;1.30;;
38513;SDS011;24282;48.400;10.808;2022-11-21T03:08:21;3.73;;;1.50;;
38513;SDS011;24282;48.400;10.808;2022-11-21T03:10:50;1.27;;;0.70;;
38513;SDS011;24282;48.400;10.808;2022-11-21T03:13:15;1.83;;;0.73;;
38513;SDS011;24282;48.400;10.808;2022-11-21T03:15:41;2.00;;;0.90;;
38513;SDS011;24282;48.400;10.808;2022-11-21T03:18:07;1.63;;;0.97;;
38513;SDS011;24282;48.400;10.808;2022-11-21T03:20:33;2.83;;;0.73;;
38513;SDS011;24282;48.400;10.808;2022-11-21T03:22:59;3.70;;;1.50;;
38513;SDS011;24282;48.400;10.808;2022-11-21T03:25:25;1.50;;;0.93;;
38513;SDS011;24282;48.400;10.808;2022-11-21T03:27:51;3.13;;;1.10;;
38513;SDS011;24282;48.400;10.808;2022-11-21T03:30:19;1.60;;;0.90;;
38513;SDS011;24282;48.400;10.808;2022-11-21T03:32:45;2.77;;;1.10;;
38513;SDS011;24282;48.400;10.808;2022-11-21T03:35:11;3.17;;;1.00;;
38513;SDS011;24282;48.400;10.808;2022-11-21T03:37:37;1.63;;;0.93;;
38513;SDS011;24282;48.400;10.808;2022-11-21T03:40:03;2.00;;;1.40;;
38513;SDS011;24282;48.400;10.808;2022-11-21T03:42:29;4.07;;;1.00;;
38513;SDS011;24282;48.400;10.808;2022-11-21T03:44:55;1.97;;;1.00;;
38513;SDS011;24282;48.400;10.808;2022-11-21T03:47:21;4.23;;;1.00;;
38513;SDS011;24282;48.400;10.808;2022-11-21T03:49:48;2.97;;;1.07;;
38513;SDS011;24282;48.400;10.808;2022-11-21T03:52:17;2.50;;;1.00;;
38513;SDS011;24282;48.400;10.808;2022-11-21T03:54:43;1.57;;;1.07;;
38513;SDS011;24282;48.400;10.808;2022-11-21T03:57:08;2.27;;;0.90;;
38513;SDS011;24282;48.400;10.808;2022-11-21T03:59:34;2.50;;;1.10;;
38513;SDS011;24282;48.400;10.808;2022-11-21T04:02:00;1.77;;;0.87;;
38513;SDS011;24282;48.400;10.808;2022-11-21T04:04:25;2.97;;;0.97;;
38513;SDS011;24282;48.400;10.808;2022-11-21T04:06:51;2.27;;;1.00;;
38513;SDS011;24282;48.400;10.808;2022-11-21T04:09:17;2.13;;;1.10;;
38513;SDS011;24282;48.400;10.808;2022-11-21T04:11:42;1.17;;;0.93;;
38513;SDS011;24282;48.400;10.808;2022-11-21T04:14:08;6.17;;;1.20;;
38513;SDS011;24282;48.400;10.808;2022-11-21T04:16:34;2.53;;;1.10;;
38513;SDS011;24282;48.400;10.808;2022-11-21T04:19:02;2.73;;;1.10;;
38513;SDS011;24282;48.400;10.808;2022-11-21T04:21:28;3.23;;;1.13;;
38513;SDS011;24282;48.400;10.808;2022-11-21T04:23:54;2.70;;;1.03;;
38513;SDS011;24282;48.400;10.808;2022-11-21T04:26:19;2.83;;;1.03;;
38513;SDS011;24282;48.400;10.808;2022-11-21T04:28:45;2.87;;;1.07;;
38513;SDS011;24282;48.400;10.808;2022-11-21T04:31:11;2.90;;;1.20;;
38513;SDS011;24282;48.400;10.808;2022-11-21T04:33:40;2.53;;;1.33;;
38513;SDS011;24282;48.400;10.808;2022-11-21T04:36:06;2.67;;;1.20;;
38513;SDS011;24282;48.400;10.808;2022-11-21T04:38:33;1.83;;;0.80;;
38513;SDS011;24282;48.400;10.808;2022-11-21T04:40:59;1.97;;;1.10;;
38513;SDS011;24282;48.400;10.808;2022-11-21T04:43:25;1.60;;;0.90;;
38513;SDS011;24282;48.400;10.808;2022-11-21T04:45:50;2.90;;;1.30;;
38513;SDS011;24282;48.400;10.808;2022-11-21T04:48:16;4.30;;;1.10;;
38513;SDS011;24282;48.400;10.808;2022-11-21T04:50:42;2.63;;;1.10;;
38513;SDS011;24282;48.400;10.808;2022-11-21T04:53:09;3.43;;;1.10;;
38513;SDS011;24282;48.400;10.808;2022-11-21T04:55:34;2.23;;;1.00;;
38513;SDS011;24282;48.400;10.808;2022-11-21T04:58:00;1.47;;;0.80;;
38513;SDS011;24282;48.400;10.808;2022-11-21T05:00:26;1.47;;;0.90;;
38513;SDS011;24282;48.400;10.808;2022-11-21T05:02:51;1.07;;;0.60;;
38513;SDS011;24282;48.400;10.808;2022-11-21T05:05:17;2.00;;;0.73;;
38513;SDS011;24282;48.400;10.808;2022-11-21T05:07:43;3.13;;;0.80;;
38513;SDS011;24282;48.400;10.808;2022-11-21T05:10:08;2.60;;;0.77;;
38513;SDS011;24282;48.400;10.808;2022-11-21T05:12:34;1.17;;;0.80;;
38513;SDS011;24282;48.400;10.808;2022-11-21T05:15:19;1.07;;;0.77;;
38513;SDS011;24282;48.400;10.808;2022-11-21T05:17:45;1.10;;;0.80;;
38513;SDS011;24282;48.400;10.808;2022-11-21T05:20:11;2.07;;;0.60;;
38513;SDS011;24282;48.400;10.808;2022-11-21T05:22:37;3.90;;;0.90;;
38513;SDS011;24282;48.400;10.808;2022-11-21T05:25:03;1.83;;;0.60;;
38513;SDS011;24282;48.400;10.808;2022-11-21T05:27:30;1.23;;;0.70;;
38513;SDS011;24282;48.400;10.808;2022-11-21T05:29:55;2.37;;;0.80;;
38513;SDS011;24282;48.400;10.808;2022-11-21T05:32:21;0.77;;;0.60;;
38513;SDS011;24282;48.400;10.808;2022-11-21T05:34:50;3.97;;;1.67;;
38513;SDS011;24282;48.400;10.808;2022-11-21T05:37:15;5.03;;;2.40;;
38513;SDS011;24282;48.400;10.808;2022-11-21T05:39:42;1.07;;;0.80;;
38513;SDS011;24282;48.400;10.808;2022-11-21T05:42:10;2.80;;;0.90;;
38513;SDS011;24282;48.400;10.808;2022-11-21T05:44:36;1.47;;;0.60;;
38513;SDS011;24282;48.400;10.808;2022-11-21T05:47:02;0.70;;;0.60;;
38513;SDS011;24282;48.400;10.808;2022-11-21T05:49:27;1.67;;;0.77;;
38513;SDS011;24282;48.400;10.808;2022-11-21T05:51:53;1.50;;;0.80;;
38513;SDS011;24282;48.400;10.808;2022-11-21T05:54:19;1.03;;;0.60;;
38513;SDS011;24282;48.400;10.808;2022-11-21T05:56:47;1.63;;;0.70;;
38513;SDS011;24282;48.400;10.808;2022-11-21T05:59:13;1.50;;;0.80;;
38513;SDS011;24282;48.400;10.808;2022-11-21T06:01:39;1.27;;;0.90;;
38513;SDS011;24282;48.400;10.808;2022-11-21T06:04:23;1.40;;;0.80;;
38513;SDS011;24282;48.400;10.808;2022-11-21T06:06:49;2.17;;;0.90;;
38513;SDS011;24282;48.400;10.808;2022-11-21T06:09:14;2.00;;;1.00;;
38513;SDS011;24282;48.400;10.808;2022-11-21T06:11:40;1.73;;;0.70;;
38513;SDS011;24282;48.400;10.808;2022-11-21T06:14:06;2.37;;;1.40;;
38513;SDS011;24282;48.400;10.808;2022-11-21T06:16:31;2.00;;;0.93;;
38513;SDS011;24282;48.400;10.808;2022-11-21T06:18:57;2.53;;;1.30;;
38513;SDS011;24282;48.400;10.808;2022-11-21T06:21:23;1.57;;;0.70;;
38513;SDS011;24282;48.400;10.808;2022-11-21T06:23:51;3.17;;;0.90;;
38513;SDS011;24282;48.400;10.808;2022-11-21T06:26:19;1.20;;;0.90;;
38513;SDS011;24282;48.400;10.808;2022-11-21T06:28:46;1.37;;;0.70;;
38513;SDS011;24282;48.400;10.808;2022-11-21T06:31:13;1.20;;;0.73;;
38513;SDS011;24282;48.400;10.808;2022-11-21T06:33:40;5.50;;;1.13;;
38513;SDS011;24282;48.400;10.808;2022-11-21T06:36:10;1.67;;;0.83;;
38513;SDS011;24282;48.400;10.808;2022-11-21T06:38:40;2.00;;;0.90;;
38513;SDS011;24282;48.400;10.808;2022-11-21T06:41:09;1.33;;;0.70;;
38513;SDS011;24282;48.400;10.808;2022-11-21T06:43:35;1.63;;;0.90;;
38513;SDS011;24282;48.400;10.808;2022-11-21T06:46:01;2.17;;;1.10;;
38513;SDS011;24282;48.400;10.808;2022-11-21T06:48:33;1.40;;;0.90;;
38513;SDS011;24282;48.400;10.808;2022-11-21T06:51:03;2.00;;;0.80;;
38513;SDS011;24282;48.400;10.808;2022-11-21T06:53:35;1.47;;;1.00;;
38513;SDS011;24282;48.400;10.808;2022-11-21T06:56:01;1.83;;;0.70;;
38513;SDS011;24282;48.400;10.808;2022-11-21T06:58:27;2.60;;;1.30;;
38513;SDS011;24282;48.400;10.808;2022-11-21T07:00:54;3.37;;;1.67;;
38513;SDS011;24282;48.400;10.808;2022-11-21T07:03:20;4.07;;;1.53;;
38513;SDS011;24282;48.400;10.808;2022-11-21T07:05:46;5.90;;;1.23;;
38513;SDS011;24282;48.400;10.808;2022-11-21T07:08:12;0.80;;;0.80;;
38513;SDS011;24282;48.400;10.808;2022-11-21T07:10:38;1.37;;;0.90;;
38513;SDS011;24282;48.400;10.808;2022-11-21T07:13:04;0.90;;;0.70;;
38513;SDS011;24282;48.400;10.808;2022-11-21T07:15:46;1.87;;;0.73;;
38513;SDS011;24282;48.400;10.808;2022-11-21T07:18:13;0.60;;;0.60;;
38513;SDS011;24282;48.400;10.808;2022-11-21T07:20:39;3.50;;;0.70;;
38513;SDS011;24282;48.400;10.808;2022-11-21T07:23:06;0.70;;;0.60;;
38513;SDS011;24282;48.400;10.808;2022-11-21T07:25:32;0.93;;;0.70;;
38513;SDS011;24282;48.400;10.808;2022-11-21T07:27:59;0.97;;;0.67;;
38513;SDS011;24282;48.400;10.808;2022-11-21T07:30:25;0.73;;;0.60;;
38513;SDS011;24282;48.400;10.808;2022-11-21T07:32:54;1.57;;;0.80;;
38513;SDS011;24282;48.400;10.808;2022-11-21T07:35:21;0.73;;;0.50;;
38513;SDS011;24282;48.400;10.808;2022-11-21T07:37:47;1.37;;;0.70;;
38513;SDS011;24282;48.400;10.808;2022-11-21T07:40:13;0.80;;;0.50;;
38513;SDS011;24282;48.400;10.808;2022-11-21T07:42:38;1.23;;;0.70;;
38513;SDS011;24282;48.400;10.808;2022-11-21T07:45:04;3.13;;;1.70;;
38513;SDS011;24282;48.400;10.808;2022-11-21T07:47:30;1.83;;;0.97;;
38513;SDS011;24282;48.400;10.808;2022-11-21T07:49:56;0.93;;;0.60;;
38513;SDS011;24282;48.400;10.808;2022-11-21T07:52:22;4.53;;;0.70;;
38513;SDS011;24282;48.400;10.808;2022-11-21T07:54:47;1.30;;;0.60;;
38513;SDS011;24282;48.400;10.808;2022-11-21T07:57:13;1.17;;;0.60;;
38513;SDS011;24282;48.400;10.808;2022-11-21T07:59:38;1.87;;;0.80;;
38513;SDS011;24282;48.400;10.808;2022-11-21T08:02:04;2.80;;;1.10;;
38513;SDS011;24282;48.400;10.808;2022-11-21T08:04:30;2.07;;;0.93;;
38513;SDS011;24282;48.400;10.808;2022-11-21T08:06:56;1.17;;;0.90;;
38513;SDS011;24282;48.400;10.808;2022-11-21T08:09:21;0.80;;;0.80;;
38513;SDS011;24282;48.400;10.808;2022-11-21T08:11:51;2.53;;;0.60;;
38513;SDS011;24282;48.400;10.808;2022-11-21T08:14:17;2.63;;;0.80;;
38513;SDS011;24282;48.400;10.808;2022-11-21T08:16:42;0.97;;;0.60;;
38513;SDS011;24282;48.400;10.808;2022-11-21T08:19:08;1.60;;;0.63;;
38513;SDS011;24282;48.400;10.808;2022-11-21T08:21:34;1.43;;;0.60;;
38513;SDS011;24282;48.400;10.808;2022-11-21T08:23:59;1.57;;;0.77;;
38513;SDS011;24282;48.400;10.808;2022-11-21T08:26:25;1.00;;;0.53;;
38513;SDS011;24282;48.400;10.808;2022-11-21T08:28:51;0.97;;;0.63;;
38513;SDS011;24282;48.400;10.808;2022-11-21T08:31:16;1.43;;;0.60;;
38513;SDS011;24282;48.400;10.808;2022-11-21T08:33:42;0.83;;;0.63;;
38513;SDS011;24282;48.400;10.808;2022-11-21T08:36:08;2.37;;;0.77;;
38513;SDS011;24282;48.400;10.808;2022-11-21T08:38:34;0.90;;;0.60;;
38513;SDS011;24282;48.400;10.808;2022-11-21T08:40:59;1.93;;;1.20;;
38513;SDS011;24282;48.400;10.808;2022-11-21T08:43:44;2.70;;;1.10;;
38513;SDS011;24282;48.400;10.808;2022-11-21T08:46:09;2.23;;;0.93;;
38513;SDS011;24282;48.400;10.808;2022-11-21T08:48:35;0.97;;;0.70;;
38513;SDS011;24282;48.400;10.808;2022-11-21T08:51:01;1.77;;;0.90;;
38513;SDS011;24282;48.400;10.808;2022-11-21T08:53:27;2.20;;;0.70;;
38513;SDS011;24282;48.400;10.808;2022-11-21T08:55:52;3.33;;;1.60;;
38513;SDS011;24282;48.400;10.808;2022-11-21T08:58:18;3.17;;;1.00;;
38513;SDS011;24282;48.400;10.808;2022-11-21T09:00:44;1.40;;;0.70;;
38513;SDS011;24282;48.400;10.808;2022-11-21T09:03:10;1.83;;;0.70;;
38513;SDS011;24282;48.400;10.808;2022-11-21T09:05:35;3.30;;;1.00;;
38513;SDS011;24282;48.400;10.808;2022-11-21T09:08:01;1.63;;;0.80;;
38513;SDS011;24282;48.400;10.808;2022-11-21T09:10:27;2.10;;;0.90;;
38513;SDS011;24282;48.400;10.808;2022-11-21T09:12:58;1.63;;;0.83;;
38513;SDS011;24282;48.400;10.808;2022-11-21T09:15:24;1.13;;;0.70;;
38513;SDS011;24282;48.400;10.808;2022-11-21T09:18:11;3.13;;;0.83;;
38513;SDS011;24282;48.400;10.808;2022-11-21T09:20:38;2.53;;;1.10;;
38513;SDS011;24282;48.400;10.808;2022-11-21T09:23:07;4.00;;;2.00;;
38513;SDS011;24282;48.400;10.808;2022-11-21T09:25:35;1.73;;;0.80;;
38513;SDS011;24282;48.400;10.808;2022-11-21T09:28:01;3.03;;;0.90;;
38513;SDS011;24282;48.400;10.808;2022-11-21T09:30:28;0.80;;;0.60;;
38513;SDS011;24282;48.400;10.808;2022-11-21T09:32:57;1.07;;;0.60;;
38513;SDS011;24282;48.400;10.808;2022-11-21T09:35:27;2.93;;;0.70;;
38513;SDS011;24282;48.400;10.808;2022-11-21T09:37:56;6.07;;;1.67;;
38513;SDS011;24282;48.400;10.808;2022-11-21T09:40:22;1.63;;;1.00;;
38513;SDS011;24282;48.400;10.808;2022-11-21T09:45:40;1.53;;;0.80;;
38513;SDS011;24282;48.400;10.808;2022-11-21T09:48:23;4.73;;;1.20;;
38513;SDS011;24282;48.400;10.808;2022-11-21T09:50:55;4.00;;;1.20;;
38513;SDS011;24282;48.400;10.808;2022-11-21T09:54:12;2.93;;;0.80;;
38513;SDS011;24282;48.400;10.808;2022-11-21T09:56:14;2.57;;;0.80;;
38513;SDS011;24282;48.400;10.808;2022-11-21T10:01:30;3.00;;;1.27;;
38513;SDS011;24282;48.400;10.808;2022-11-21T10:03:56;1.87;;;0.80;;
38513;SDS011;24282;48.400;10.808;2022-11-21T10:06:25;2.23;;;0.90;;
38513;SDS011;24282;48.400;10.808;2022-11-21T10:09:17;3.10;;;1.00;;
38513;SDS011;24282;48.400;10.808;2022-11-21T10:25:44;1.73;;;0.90;;
38513;SDS011;24282;48.400;10.808;2022-11-21T10:28:39;1.93;;;0.70;;
38513;SDS011;24282;48.400;10.808;2022-11-21T10:31:09;2.93;;;0.80;;
38513;SDS011;24282;48.400;10.808;2022-11-21T10:33:37;3.97;;;0.90;;
38513;SDS011;24282;48.400;10.808;2022-11-21T10:36:06;5.40;;;1.23;;
38513;SDS011;24282;48.400;10.808;2022-11-21T10:38:40;3.20;;;1.03;;
38513;SDS011;24282;48.400;10.808;2022-11-21T10:41:14;1.93;;;0.73;;
38513;SDS011;24282;48.400;10.808;2022-11-21T10:46:56;6.47;;;2.13;;
38513;SDS011;24282;48.400;10.808;2022-11-21T10:49:24;3.67;;;0.77;;
38513;SDS011;24282;48.400;10.808;2022-11-21T10:54:31;2.20;;;0.67;;
38513;SDS011;24282;48.400;10.808;2022-11-21T10:57:05;3.27;;;0.90;;
38513;SDS011;24282;48.400;10.808;2022-11-21T10:59:37;3.93;;;0.70;;
38513;SDS011;24282;48.400;10.808;2022-11-21T11:04:38;2.40;;;0.87;;
38513;SDS011;24282;48.400;10.808;2022-11-21T11:07:24;3.87;;;0.77;;
38513;SDS011;24282;48.400;10.808;2022-11-21T11:09:52;1.70;;;0.70;;
38513;SDS011;24282;48.400;10.808;2022-11-21T11:12:38;1.33;;;0.67;;
38513;SDS011;24282;48.400;10.808;2022-11-21T11:15:24;2.67;;;1.07;;
38513;SDS011;24282;48.400;10.808;2022-11-21T11:22:59;4.35;;;0.90;;
38513;SDS011;24282;48.400;10.808;2022-11-21T11:25:46;6.57;;;1.00;;
38513;SDS011;24282;48.400;10.808;2022-11-21T11:28:14;3.57;;;1.20;;
38513;SDS011;24282;48.400;10.808;2022-11-21T11:30:40;3.90;;;1.07;;
38513;SDS011;24282;48.400;10.808;2022-11-21T11:35:56;3.03;;;0.80;;
38513;SDS011;24282;48.400;10.808;2022-11-21T11:38:31;2.17;;;0.53;;
38513;SDS011;24282;48.400;10.808;2022-11-21T11:40:59;2.63;;;1.10;;
38513;SDS011;24282;48.400;10.808;2022-11-21T11:49:47;2.63;;;0.90;;
38513;SDS011;24282;48.400;10.808;2022-11-21T11:52:38;4.60;;;1.10;;
38513;SDS011;24282;48.400;10.808;2022-11-21T11:55:17;2.17;;;0.70;;
38513;SDS011;24282;48.400;10.808;2022-11-21T11:57:48;2.80;;;1.25;;
38513;SDS011;24282;48.400;10.808;2022-11-21T12:03:00;2.00;;;0.70;;
38513;SDS011;24282;48.400;10.808;2022-11-21T12:05:38;3.40;;;0.77;;
38513;SDS011;24282;48.400;10.808;2022-11-21T12:08:14;3.43;;;0.90;;
38513;SDS011;24282;48.400;10.808;2022-11-21T12:10:53;3.37;;;0.80;;
38513;SDS011;24282;48.400;10.808;2022-11-21T12:13:43;2.60;;;0.50;;
38513;SDS011;24282;48.400;10.808;2022-11-21T12:16:12;2.30;;;0.80;;
38513;SDS011;24282;48.400;10.808;2022-11-21T12:21:16;4.20;;;0.80;;
38513;SDS011;24282;48.400;10.808;2022-11-21T12:23:47;2.67;;;0.77;;
38513;SDS011;24282;48.400;10.808;2022-11-21T12:32:19;2.57;;;1.00;;
38513;SDS011;24282;48.400;10.808;2022-11-21T12:43:28;1.60;;;0.50;;
38513;SDS011;24282;48.400;10.808;2022-11-21T12:46:18;2.33;;;0.63;;
38513;SDS011;24282;48.400;10.808;2022-11-21T12:49:29;3.17;;;0.63;;
38513;SDS011;24282;48.400;10.808;2022-11-21T12:52:24;2.53;;;0.83;;
38513;SDS011;24282;48.400;10.808;2022-11-21T12:55:19;2.03;;;0.67;;
38513;SDS011;24282;48.400;10.808;2022-11-21T13:00:31;4.67;;;1.03;;
38513;SDS011;24282;48.400;10.808;2022-11-21T13:05:51;4.23;;;0.80;;
38513;SDS011;24282;48.400;10.808;2022-11-21T13:08:29;1.43;;;0.50;;
38513;SDS011;24282;48.400;10.808;2022-11-21T13:14:03;2.80;;;0.70;;
38513;SDS011;24282;48.400;10.808;2022-11-21T13:16:52;2.57;;;0.70;;
38513;SDS011;24282;48.400;10.808;2022-11-21T13:22:06;2.47;;;0.70;;
38513;SDS011;24282;48.400;10.808;2022-11-21T13:25:07;4.37;;;1.27;;
38513;SDS011;24282;48.400;10.808;2022-11-21T13:32:48;3.63;;;0.87;;
38513;SDS011;24282;48.400;10.808;2022-11-21T13:45:47;2.37;;;0.70;;
38513;SDS011;24282;48.400;10.808;2022-11-21T13:48:25;2.53;;;0.77;;
38513;SDS011;24282;48.400;10.808;2022-11-21T13:56:31;2.07;;;0.63;;
38513;SDS011;24282;48.400;10.808;2022-11-21T14:07:29;3.83;;;0.80;;
38513;SDS011;24282;48.400;10.808;2022-11-21T14:09:58;1.60;;;0.53;;
38513;SDS011;24282;48.400;10.808;2022-11-21T14:12:28;2.03;;;0.63;;
38513;SDS011;24282;48.400;10.808;2022-11-21T14:22:41;3.60;;;1.43;;
38513;SDS011;24282;48.400;10.808;2022-11-21T14:25:35;2.70;;;1.20;;
38513;SDS011;24282;48.400;10.808;2022-11-21T14:28:04;3.07;;;1.40;;
38513;SDS011;24282;48.400;10.808;2022-11-21T14:30:37;2.00;;;0.90;;
38513;SDS011;24282;48.400;10.808;2022-11-21T14:33:21;1.93;;;0.87;;
38513;SDS011;24282;48.400;10.808;2022-11-21T14:35:48;3.97;;;1.30;;
38513;SDS011;24282;48.400;10.808;2022-11-21T14:38:18;3.03;;;1.23;;
38513;SDS011;24282;48.400;10.808;2022-11-21T14:40:44;3.30;;;1.40;;
38513;SDS011;24282;48.400;10.808;2022-11-21T14:43:30;5.10;;;1.33;;
38513;SDS011;24282;48.400;10.808;2022-11-21T14:45:57;2.50;;;1.10;;
38513;SDS011;24282;48.400;10.808;2022-11-21T14:48:24;3.23;;;1.13;;
38513;SDS011;24282;48.400;10.808;2022-11-21T14:50:51;3.63;;;1.17;;
38513;SDS011;24282;48.400;10.808;2022-11-21T14:53:17;5.40;;;1.53;;
38513;SDS011;24282;48.400;10.808;2022-11-21T14:55:43;3.70;;;1.50;;
38513;SDS011;24282;48.400;10.808;2022-11-21T14:58:15;4.50;;;2.53;;
38513;SDS011;24282;48.400;10.808;2022-11-21T15:00:59;5.13;;;2.30;;
38513;SDS011;24282;48.400;10.808;2022-11-21T15:03:27;4.60;;;1.90;;
38513;SDS011;24282;48.400;10.808;2022-11-21T15:06:03;4.67;;;1.40;;
38513;SDS011;24282;48.400;10.808;2022-11-21T15:08:30;4.53;;;1.83;;
38513;SDS011;24282;48.400;10.808;2022-11-21T15:10:57;6.10;;;1.70;;
38513;SDS011;24282;48.400;10.808;2022-11-21T15:13:24;4.63;;;1.80;;
38513;SDS011;24282;48.400;10.808;2022-11-21T15:15:57;4.32;;;2.15;;
38513;SDS011;24282;48.400;10.808;2022-11-21T15:18:27;6.67;;;2.93;;
38513;SDS011;24282;48.400;10.808;2022-11-21T15:20:56;4.80;;;2.40;;
38513;SDS011;24282;48.400;10.808;2022-11-21T15:23:28;4.80;;;2.67;;
38513;SDS011;24282;48.400;10.808;2022-11-21T15:25:55;8.77;;;2.63;;
38513;SDS011;24282;48.400;10.808;2022-11-21T15:28:28;7.07;;;2.50;;
38513;SDS011;24282;48.400;10.808;2022-11-21T15:34:09;4.40;;;2.00;;
38513;SDS011;24282;48.400;10.808;2022-11-21T15:36:34;3.90;;;2.07;;
38513;SDS011;24282;48.400;10.808;2022-11-21T15:39:11;4.47;;;2.10;;
38513;SDS011;24282;48.400;10.808;2022-11-21T15:41:45;5.97;;;2.30;;
38513;SDS011;24282;48.400;10.808;2022-11-21T15:46:36;8.10;;;1.70;;
38513;SDS011;24282;48.400;10.808;2022-11-21T15:49:07;5.40;;;2.13;;
38513;SDS011;24282;48.400;10.808;2022-11-21T15:54:11;3.50;;;1.50;;
38513;SDS011;24282;48.400;10.808;2022-11-21T15:56:39;3.90;;;1.40;;
38513;SDS011;24282;48.400;10.808;2022-11-21T15:59:05;2.37;;;1.30;;
38513;SDS011;24282;48.400;10.808;2022-11-21T16:01:32;4.30;;;1.50;;
38513;SDS011;24282;48.400;10.808;2022-11-21T16:03:59;3.03;;;1.20;;
38513;SDS011;24282;48.400;10.808;2022-11-21T16:06:32;3.47;;;1.17;;
38513;SDS011;24282;48.400;10.808;2022-11-21T16:08:59;2.13;;;1.20;;
38513;SDS011;24282;48.400;10.808;2022-11-21T16:11:28;2.97;;;1.40;;
38513;SDS011;24282;48.400;10.808;2022-11-21T16:16:27;4.73;;;1.50;;
38513;SDS011;24282;48.400;10.808;2022-11-21T16:18:55;4.43;;;2.03;;
38513;SDS011;24282;48.400;10.808;2022-11-21T16:21:21;3.53;;;2.10;;
38513;SDS011;24282;48.400;10.808;2022-11-21T16:23:47;4.40;;;2.03;;
38513;SDS011;24282;48.400;10.808;2022-11-21T16:26:13;6.87;;;2.43;;
38513;SDS011;24282;48.400;10.808;2022-11-21T16:28:39;2.67;;;1.70;;
38513;SDS011;24282;48.400;10.808;2022-11-21T16:31:05;4.50;;;1.90;;
38513;SDS011;24282;48.400;10.808;2022-11-21T16:33:31;5.43;;;2.97;;
38513;SDS011;24282;48.400;10.808;2022-11-21T16:35:58;4.03;;;1.97;;
38513;SDS011;24282;48.400;10.808;2022-11-21T16:38:24;7.60;;;2.23;;
38513;SDS011;24282;48.400;10.808;2022-11-21T16:40:55;3.57;;;1.93;;
38513;SDS011;24282;48.400;10.808;2022-11-21T16:43:26;5.87;;;3.10;;
38513;SDS011;24282;48.400;10.808;2022-11-21T16:45:52;6.73;;;3.63;;
38513;SDS011;24282;48.400;10.808;2022-11-21T16:48:19;5.20;;;3.17;;
38513;SDS011;24282;48.400;10.808;2022-11-21T16:50:46;7.03;;;3.60;;